Terminal Aerodrome Forecast
Issued by NWS Shreveport, LA

Home | Current Version | Previous Version | Text Only | Print | Product List | Glossary On
Versions: 1 2 3 4 5 6 7 8 9 10 11 12
544
FTUS44 KSHV 212321
TAFTXK
TAF
KTXK 212321Z 2200/2224 VRB03KT P6SM BKN035
      TEMPO 2202/2204 SCT035 SCT250
     FM220400 36006KT P6SM SCT250
     FM221300 03009KT P6SM SKC
     FM222100 35006KT P6SM SCT250=

USA.gov is the U.S. government's official web portal to all federal, state and local government web resources and services.